Time;durP1;ratioP1;P1;durP2;ratioP2;P2;SDS_P1;SDS_P2;PMS_P1;PMS_P2;Temp;Humidity;BMP_temperature;BMP_pressure;BME280_temperature;BME280_humidity;BME280_pressure;Samples;Min_cycle;Max_cycle;Signal;HPM_P1;HPM_P2
2021/11/22 06:45:11;;;;;;;17.87;8.33;;;2.10;99.90;;;;;;5033088;27;1948301;-77
2021/11/22 06:47:37;;;;;;;11.77;6.33;;;2.00;99.90;;;;;;5071143;28;216531;-78
2021/11/22 06:50:05;;;;;;;15.97;7.00;;;2.00;99.90;;;;;;5082251;28;20103;-78
2021/11/22 06:52:31;;;;;;;10.50;5.30;;;2.10;99.90;;;;;;5093624;28;20487;-79
2021/11/22 06:54:58;;;;;;;8.33;4.10;;;2.20;99.90;;;;;;5093215;28;20044;-77
2021/11/22 06:57:25;;;;;;;11.93;3.60;;;2.30;99.90;;;;;;5074849;28;20024;-78
2021/11/22 06:59:51;;;;;;;15.07;3.47;;;2.30;99.90;;;;;;5078987;28;20020;-78
2021/11/22 07:02:18;;;;;;;6.80;3.17;;;2.40;99.90;;;;;;5078358;28;20037;-76
2021/11/22 07:04:46;;;;;;;3.85;2.13;;;2.40;99.90;;;;;;5064066;28;20075;-76
2021/11/22 07:07:14;;;;;;;9.20;3.15;;;2.50;99.90;;;;;;5082533;28;20356;-75
2021/11/22 07:09:41;;;;;;;5.30;2.00;;;2.50;99.90;;;;;;5081271;28;20024;-76
2021/11/22 07:12:09;;;;;;;6.47;3.45;;;2.50;99.90;;;;;;5077037;28;20048;-76
2021/11/22 07:14:37;;;;;;;9.57;6.20;;;2.60;99.90;;;;;;5075689;28;20040;-76
2021/11/22 07:17:05;;;;;;;14.03;7.00;;;2.60;99.90;;;;;;5081434;28;20039;-78
2021/11/22 07:19:32;;;;;;;12.10;5.82;;;2.60;99.90;;;;;;5081105;28;20040;-78
2021/11/22 07:22:03;;;;;;;6.03;3.83;;;2.70;99.90;;;;;;5079424;28;20059;-79
2021/11/22 07:24:30;;;;;;;11.07;3.63;;;2.70;99.90;;;;;;5079578;28;20044;-78
2021/11/22 07:26:56;;;;;;;7.20;2.37;;;2.70;99.90;;;;;;5081585;28;20044;-79
2021/11/22 07:29:23;;;;;;;6.20;2.10;;;2.70;99.90;;;;;;5060500;28;20045;-79
2021/11/22 07:31:50;;;;;;;6.63;2.30;;;2.80;99.90;;;;;;5081957;28;20036;-79
2021/11/22 07:34:16;;;;;;;9.55;1.80;;;2.80;99.90;;;;;;5077943;28;20376;-78
2021/11/22 07:36:43;;;;;;;7.88;2.35;;;2.90;99.90;;;;;;5094267;28;20032;-79
2021/11/22 07:39:09;;;;;;;6.30;1.75;;;2.90;99.90;;;;;;5049761;28;20407;-78
2021/11/22 07:41:36;;;;;;;3.72;1.48;;;3.00;99.90;;;;;;5066701;28;20044;-79
2021/11/22 07:44:02;;;;;;;3.60;1.50;;;3.00;99.90;;;;;;5081660;28;20045;-78
2021/11/22 07:46:29;;;;;;;3.70;1.15;;;3.00;99.90;;;;;;5081557;28;20577;-78
2021/11/22 07:48:55;;;;;;;11.82;2.22;;;3.10;99.90;;;;;;5079113;28;20040;-79
2021/11/22 07:51:23;;;;;;;5.93;1.80;;;3.10;99.90;;;;;;5064155;28;20037;-79
2021/11/22 07:53:50;;;;;;;7.75;1.55;;;3.10;99.90;;;;;;5085845;28;20040;-78
2021/11/22 07:56:16;;;;;;;5.20;1.85;;;3.20;99.90;;;;;;5072105;28;20039;-79
2021/11/22 07:58:43;;;;;;;6.75;2.13;;;3.20;99.90;;;;;;5067333;28;20032;-79
2021/11/22 08:01:09;;;;;;;7.32;1.77;;;3.20;99.90;;;;;;5034667;28;20079;-79
2021/11/22 08:03:36;;;;;;;7.68;1.63;;;3.30;99.90;;;;;;5052564;28;20033;-79
2021/11/22 08:06:03;;;;;;;4.05;1.80;;;3.40;99.90;;;;;;5050789;28;20032;-79
2021/11/22 08:08:32;;;;;;;7.20;1.90;;;3.40;99.90;;;;;;5082930;28;20021;-79
2021/11/22 08:11:06;;;;;;;9.93;2.13;;;3.40;99.90;;;;;;5073728;28;20033;-79
2021/11/22 08:13:34;;;;;;;5.32;1.75;;;3.50;99.90;;;;;;5068752;28;20036;-79
2021/11/22 08:16:03;;;;;;;4.97;1.50;;;3.50;99.90;;;;;;5069275;28;20588;-78
2021/11/22 08:18:30;;;;;;;7.35;2.25;;;3.60;99.90;;;;;;5085582;28;20806;-78
2021/11/22 08:20:57;;;;;;;7.50;2.22;;;3.70;99.90;;;;;;5048737;28;20434;-76
2021/11/22 08:23:24;;;;;;;6.55;1.60;;;3.70;99.90;;;;;;5069237;28;20387;-78
2021/11/22 08:25:51;;;;;;;5.00;1.90;;;3.80;99.90;;;;;;5069883;28;20020;-79
2021/11/22 08:28:18;;;;;;;6.13;1.83;;;3.80;99.90;;;;;;5056952;28;20056;-78
2021/11/22 08:30:45;;;;;;;4.93;1.83;;;3.80;99.90;;;;;;5068357;28;20025;-78
2021/11/22 08:33:14;;;;;;;7.60;1.55;;;3.90;99.90;;;;;;5064617;28;20032;-78
2021/11/22 08:35:42;;;;;;;9.90;2.08;;;4.00;99.90;;;;;;5066192;28;20037;-78
2021/11/22 08:38:09;;;;;;;4.25;1.52;;;4.00;99.90;;;;;;5068606;28;20035;-79
2021/11/22 08:40:40;;;;;;;7.00;1.58;;;4.00;99.90;;;;;;5064639;28;20054;-79
2021/11/22 08:43:08;;;;;;;5.90;1.98;;;4.10;99.90;;;;;;5084116;28;20040;-79
2021/11/22 08:45:35;;;;;;;5.50;1.58;;;4.10;99.90;;;;;;5035312;28;20392;-79
2021/11/22 08:48:02;;;;;;;6.50;1.67;;;4.20;99.90;;;;;;5049226;28;20039;-79
2021/11/22 08:50:29;;;;;;;4.13;1.67;;;4.20;99.90;;;;;;5072146;28;20063;-79
2021/11/22 08:52:55;;;;;;;3.47;1.25;;;4.30;99.90;;;;;;5087034;28;20518;-78
2021/11/22 08:55:22;;;;;;;6.18;1.52;;;4.30;99.90;;;;;;5052343;28;20036;-78
2021/11/22 08:57:48;;;;;;;2.95;1.38;;;4.40;99.90;;;;;;5069967;28;20037;-78
2021/11/22 09:00:19;;;;;;;6.97;1.52;;;4.40;99.90;;;;;;5034011;28;20040;-78
2021/11/22 09:02:46;;;;;;;4.05;1.30;;;4.50;99.90;;;;;;5065538;28;20036;-78
2021/11/22 09:05:13;;;;;;;2.30;1.10;;;4.50;99.90;;;;;;5065248;28;20044;-77
2021/11/22 09:07:39;;;;;;;6.35;1.48;;;4.50;99.90;;;;;;5066315;28;20048;-77
2021/11/22 09:10:06;;;;;;;12.43;1.83;;;4.60;99.90;;;;;;5027932;28;20492;-77
2021/11/22 09:12:37;;;;;;;5.82;1.40;;;4.60;99.90;;;;;;5045990;28;20040;-78
2021/11/22 09:15:04;;;;;;;6.68;2.17;;;4.70;99.90;;;;;;5066175;28;20051;-77
2021/11/22 09:17:30;;;;;;;4.38;1.00;;;4.70;99.90;;;;;;5062514;28;20032;-78
2021/11/22 09:19:57;;;;;;;7.15;3.35;;;4.80;99.90;;;;;;5051449;28;20040;-78
2021/11/22 09:22:23;;;;;;;4.93;1.63;;;4.90;99.90;;;;;;5050309;28;20047;-77
2021/11/22 09:24:50;;;;;;;5.40;1.40;;;4.90;99.90;;;;;;5065559;28;20052;-78
2021/11/22 09:27:19;;;;;;;7.57;1.45;;;5.00;99.90;;;;;;5066824;28;20041;-78
2021/11/22 09:29:46;;;;;;;10.82;4.47;;;5.00;99.90;;;;;;5064829;28;20059;-77
2021/11/22 09:32:12;;;;;;;8.43;3.00;;;5.10;99.90;;;;;;5061913;28;20496;-78
2021/11/22 09:34:38;;;;;;;10.82;4.93;;;5.10;99.90;;;;;;5064115;28;20040;-78
2021/11/22 09:37:05;;;;;;;4.80;1.88;;;5.20;99.90;;;;;;5068071;28;20029;-77
2021/11/22 09:39:32;;;;;;;5.13;1.67;;;5.30;99.90;;;;;;5055497;28;20040;-77
2021/11/22 09:41:58;;;;;;;3.58;1.38;;;5.40;99.90;;;;;;5063136;28;20472;-78
2021/11/22 09:44:25;;;;;;;3.85;0.90;;;5.60;99.90;;;;;;5061689;28;20049;-78
2021/11/22 09:46:56;;;;;;;5.55;1.15;;;5.70;99.90;;;;;;5047767;28;20029;-78
2021/11/22 09:49:24;;;;;;;6.00;0.98;;;5.90;99.90;;;;;;5066597;28;20036;-78
2021/11/22 09:51:52;;;;;;;4.28;0.70;;;6.20;99.90;;;;;;5068023;28;20025;-79
2021/11/22 09:54:19;;;;;;;6.00;0.80;;;6.40;99.90;;;;;;5035353;28;20044;-78
2021/11/22 09:56:49;;;;;;;16.20;9.10;;;6.60;99.90;;;;;;5061326;28;20024;-77
2021/11/22 09:59:16;;;;;;;6.75;2.45;;;6.80;99.90;;;;;;5059492;28;20033;-77
2021/11/22 10:01:43;;;;;;;3.65;1.27;;;7.10;99.90;;;;;;5060521;28;20025;-79
2021/11/22 10:04:14;;;;;;;4.47;0.70;;;7.30;99.90;;;;;;5066839;28;20403;-78
2021/11/22 10:06:46;;;;;;;3.33;0.60;;;7.50;99.90;;;;;;5045335;28;20033;-78
2021/11/22 10:09:31;;;;;;;2.58;0.70;;;7.80;99.90;;;;;;5051444;28;20494;-78
2021/11/22 10:12:02;;;;;;;4.72;0.68;;;8.20;99.90;;;;;;5065007;28;20029;-78
2021/11/22 10:14:42;;;;;;;2.83;0.50;;;8.40;99.90;;;;;;5060505;28;20028;-78
2021/11/22 10:17:22;;;;;;;2.03;0.50;;;8.60;99.90;;;;;;5081788;28;20043;-78
2021/11/22 10:20:08;;;;;;;3.40;0.60;;;8.70;99.90;;;;;;5068180;28;20040;-78
2021/11/22 10:22:52;;;;;;;3.10;0.50;;;9.00;99.90;;;;;;5066374;28;20044;-78
2021/11/22 10:25:45;;;;;;;3.33;0.50;;;9.10;99.90;;;;;;5065941;28;20036;-79
2021/11/22 10:28:32;;;;;;;2.28;0.50;;;9.30;99.90;;;;;;5046361;28;20061;-78
2021/11/22 10:31:09;;;;;;;3.83;0.40;;;9.50;99.90;;;;;;5062266;28;20036;-78
2021/11/22 10:33:38;;;;;;;4.47;0.80;;;9.60;99.90;;;;;;5062557;28;20036;-78
2021/11/22 10:36:11;;;;;;;3.25;0.60;;;9.60;99.90;;;;;;5084823;28;20048;-77
2021/11/22 10:38:40;;;;;;;3.22;0.70;;;9.40;99.90;;;;;;5065296;28;20037;-78
2021/11/22 10:41:13;;;;;;;4.57;0.70;;;9.10;99.90;;;;;;5068896;28;20043;-79
2021/11/22 10:43:52;;;;;;;3.22;0.70;;;8.90;99.90;;;;;;5057840;28;20064;-78
2021/11/22 10:46:27;;;;;;;4.75;1.52;;;8.60;99.90;;;;;;5067002;28;20029;-80
2021/11/22 10:49:17;;;;;;;3.22;0.77;;;8.30;99.90;;;;;;5067770;28;20035;-80
2021/11/22 10:51:47;;;;;;;4.97;2.15;;;8.10;99.90;;;;;;5078592;28;20040;-79
2021/11/22 10:54:19;;;;;;;9.52;5.03;;;8.00;99.90;;;;;;5066895;28;20041;-79
2021/11/22 10:56:49;;;;;;;6.28;1.25;;;7.80;99.90;;;;;;5066705;28;20028;-78
2021/11/22 10:59:19;;;;;;;5.63;1.17;;;7.70;99.90;;;;;;5072469;28;20048;-79
2021/11/22 11:01:53;;;;;;;3.47;0.52;;;7.60;99.90;;;;;;5051098;28;20376;-79
2021/11/22 11:04:31;;;;;;;3.75;0.60;;;7.50;99.90;;;;;;5090561;28;20024;-77
2021/11/22 11:07:02;;;;;;;3.08;0.63;;;7.40;99.90;;;;;;5075699;28;20083;-77
2021/11/22 11:09:30;;;;;;;5.88;3.05;;;7.30;99.90;;;;;;5061179;28;20055;-76
2021/11/22 11:12:02;;;;;;;4.63;2.28;;;7.20;99.90;;;;;;5095260;28;20055;-77
2021/11/22 11:14:32;;;;;;;4.15;1.40;;;7.20;99.90;;;;;;5065842;28;20037;-77
2021/11/22 11:17:15;;;;;;;3.47;1.00;;;7.10;99.90;;;;;;5066484;28;20511;-74
2021/11/22 11:19:44;;;;;;;2.45;0.52;;;7.10;99.90;;;;;;5066507;28;20066;-76
2021/11/22 11:22:10;;;;;;;6.97;0.80;;;7.00;99.90;;;;;;5068048;28;20021;-79
2021/11/22 11:24:40;;;;;;;2.17;0.40;;;7.00;99.90;;;;;;5049063;28;20419;-80
2021/11/22 11:27:13;;;;;;;2.00;0.60;;;6.90;99.90;;;;;;5034428;28;20032;-79
2021/11/22 11:29:40;;;;;;;2.40;0.45;;;6.90;99.90;;;;;;5032938;28;20048;-78
2021/11/22 11:32:06;;;;;;;2.25;0.40;;;6.90;99.90;;;;;;5036705;28;20052;-78
2021/11/22 11:34:36;;;;;;;3.05;0.57;;;6.90;99.90;;;;;;5067090;28;20047;-78
2021/11/22 11:37:02;;;;;;;2.92;0.60;;;6.90;99.90;;;;;;5064824;28;20475;-78
2021/11/22 11:39:55;;;;;;;5.32;0.60;;;6.80;99.90;;;;;;5084901;28;20024;-78
2021/11/22 11:42:47;;;;;;;3.22;0.65;;;6.90;99.90;;;;;;5050307;28;20036;-80
2021/11/22 11:45:18;;;;;;;5.47;0.40;;;6.90;99.90;;;;;;5085241;28;20743;-78
2021/11/22 11:48:07;;;;;;;3.17;1.63;;;6.90;99.90;;;;;;5068554;28;20051;-77
2021/11/22 11:50:43;;;;;;;4.03;1.10;;;6.90;99.90;;;;;;5064045;28;20044;-79
2021/11/22 11:53:18;;;;;;;2.75;1.23;;;6.90;99.90;;;;;;5071691;28;20498;-77
2021/11/22 11:56:09;;;;;;;4.90;0.88;;;6.90;99.90;;;;;;5062574;28;20032;-77
2021/11/22 11:58:36;;;;;;;3.95;0.70;;;6.90;99.90;;;;;;5077897;28;20407;-77
2021/11/22 12:01:13;;;;;;;2.53;0.38;;;6.90;99.90;;;;;;5064090;28;20052;-76
2021/11/22 12:04:20;;;;;;;3.60;0.70;;;6.90;99.90;;;;;;5065565;28;20558;-77
2021/11/22 12:07:13;;;;;;;1.90;0.70;;;6.90;99.90;;;;;;5050597;28;20044;-75
2021/11/22 12:09:50;;;;;;;1.23;0.30;;;6.90;99.90;;;;;;5063673;28;20049;-76
2021/11/22 12:13:14;;;;;;;1.05;0.40;;;6.90;99.90;;;;;;5029728;28;20052;-76
2021/11/22 12:15:54;;;;;;;4.18;0.73;;;6.90;99.90;;;;;;5021805;28;20052;-76
2021/11/22 12:18:59;;;;;;;0.93;0.40;;;6.90;99.90;;;;;;5012615;28;20069;-75
2021/11/22 12:22:07;;;;;;;3.47;0.50;;;6.90;99.90;;;;;;5029903;28;20049;-75
2021/11/22 12:24:47;;;;;;;2.45;0.50;;;6.90;99.90;;;;;;5013887;28;20060;-75
2021/11/22 12:27:37;;;;;;;3.00;0.63;;;6.90;99.90;;;;;;4999549;28;20049;-75
2021/11/22 12:30:45;;;;;;;3.20;1.00;;;6.90;99.90;;;;;;5028190;28;20045;-75
2021/11/22 12:34:02;;;;;;;3.15;0.70;;;6.90;99.90;;;;;;5027217;28;20041;-75
2021/11/22 12:36:34;;;;;;;5.40;0.70;;;6.90;99.90;;;;;;5026050;28;20497;-75
2021/11/22 12:39:07;;;;;;;1.40;0.40;;;6.90;99.90;;;;;;5010048;28;20426;-75
2021/11/22 12:41:36;;;;;;;6.72;0.85;;;6.90;99.90;;;;;;5009603;28;20629;-75
2021/11/22 12:44:16;;;;;;;5.38;0.70;;;7.00;99.90;;;;;;5031694;28;20451;-75
2021/11/22 12:47:30;;;;;;;4.18;0.82;;;7.00;99.90;;;;;;5061894;28;20044;-76
2021/11/22 12:50:25;;;;;;;2.45;0.55;;;7.00;99.90;;;;;;5058287;28;20395;-76
2021/11/22 12:53:21;;;;;;;2.97;0.57;;;7.00;99.90;;;;;;5018193;28;20048;-76
2021/11/22 12:56:12;;;;;;;6.47;0.90;;;6.90;99.90;;;;;;5033994;28;20060;-76
2021/11/22 12:59:35;;;;;;;1.88;0.88;;;7.00;99.90;;;;;;5023410;28;20107;-76
2021/11/22 13:03:04;;;;;;;3.53;0.70;;;7.00;99.90;;;;;;5023395;28;20052;-76
2021/11/22 13:06:02;;;;;;;2.92;0.40;;;7.00;99.90;;;;;;4991826;28;20042;-76
2021/11/22 13:08:32;;;;;;;1.70;0.47;;;7.00;99.90;;;;;;5006529;28;20037;-76
2021/11/22 13:11:05;;;;;;;1.20;0.30;;;7.00;99.90;;;;;;5030698;28;20153;-78
2021/11/22 13:16:15;;;;;;;4.63;1.67;;;7.00;99.90;;;;;;4996986;28;20060;-78
2021/11/22 13:19:13;;;;;;;6.72;0.80;;;7.00;99.90;;;;;;5021184;28;20041;-77
2021/11/22 13:21:49;;;;;;;3.50;0.47;;;7.00;99.90;;;;;;5005430;28;20045;-78
2021/11/22 13:24:26;;;;;;;1.90;0.32;;;7.00;99.90;;;;;;5009906;28;20052;-79
2021/11/22 13:26:58;;;;;;;1.50;0.50;;;7.00;99.90;;;;;;5008552;28;20048;-78
2021/11/22 13:29:29;;;;;;;3.05;0.30;;;6.90;99.90;;;;;;5023988;28;20033;-74
2021/11/22 13:32:02;;;;;;;2.55;0.30;;;7.00;99.90;;;;;;5028883;28;20392;-77
2021/11/22 13:34:34;;;;;;;0.75;0.30;;;6.90;99.90;;;;;;5032529;28;20048;-77
2021/11/22 13:37:08;;;;;;;1.55;0.30;;;6.90;99.90;;;;;;5031990;28;20380;-77
2021/11/22 13:39:44;;;;;;;3.40;0.38;;;6.90;99.90;;;;;;5050269;28;20100;-76
2021/11/22 13:42:18;;;;;;;1.58;0.40;;;6.90;99.90;;;;;;5034299;28;20400;-76
2021/11/22 13:44:57;;;;;;;1.58;0.43;;;6.90;99.90;;;;;;5065856;28;20439;-77
2021/11/22 13:47:36;;;;;;;1.40;0.40;;;6.90;99.90;;;;;;5033126;28;20052;-77
2021/11/22 13:50:22;;;;;;;1.55;0.65;;;6.90;99.90;;;;;;5031550;28;20162;-77
2021/11/22 13:53:04;;;;;;;2.97;0.40;;;6.90;99.90;;;;;;5031926;28;20048;-77
2021/11/22 13:57:41;;;;;;;;;;;;;;;;;;;;;
2021/11/22 14:06:30;;;;;;;1.95;0.50;;;6.90;99.90;;;;;;5065611;28;20047;-77
2021/11/22 14:23:57;;;;;;;1.98;0.50;;;7.00;99.90;;;;;;4941160;28;20423;-79
2021/11/22 14:26:43;;;;;;;0.85;0.28;;;7.00;99.90;;;;;;4927748;28;20074;-81
2021/11/22 14:33:49;;;;;;;1.77;0.30;;;7.00;99.90;;;;;;4911550;29;20472;-83
2021/11/22 14:36:16;;;;;;;1.00;0.30;;;6.90;99.90;;;;;;4924105;28;20439;-78
2021/11/22 14:38:55;;;;;;;1.95;0.30;;;6.80;99.90;;;;;;4950715;28;20035;-79
2021/11/22 14:41:48;;;;;;;1.50;0.38;;;6.80;99.90;;;;;;4967569;28;20038;-78
2021/11/22 14:44:15;;;;;;;0.60;0.28;;;6.80;99.90;;;;;;5012485;28;20411;-78
2021/11/22 15:08:44;;;;;;;2.67;0.60;;;6.40;99.90;;;;;;5017916;28;20050;-78
2021/11/22 15:11:16;;;;;;;2.47;0.60;;;6.30;99.90;;;;;;4995608;28;20037;-78
2021/11/22 15:13:43;;;;;;;1.90;0.57;;;6.20;99.90;;;;;;5004902;28;20446;-78
2021/11/22 15:16:09;;;;;;;1.73;0.40;;;6.20;99.90;;;;;;5029280;28;20480;-77
2021/11/22 15:18:35;;;;;;;2.58;0.30;;;6.10;99.90;;;;;;5034431;28;20045;-76
2021/11/22 15:21:02;;;;;;;1.90;0.50;;;6.10;99.90;;;;;;5069063;28;20040;-77
2021/11/22 15:23:29;;;;;;;2.42;0.52;;;6.00;99.90;;;;;;5053902;28;20048;-77
2021/11/22 15:25:59;;;;;;;3.42;0.30;;;6.00;99.90;;;;;;5053215;28;20048;-76
2021/11/22 15:28:29;;;;;;;1.20;0.43;;;6.00;99.90;;;;;;5020287;28;20052;-77
2021/11/22 15:31:01;;;;;;;1.92;0.77;;;5.90;99.90;;;;;;5067606;28;20024;-77
2021/11/22 15:33:28;;;;;;;1.35;0.70;;;5.80;99.90;;;;;;5018429;28;20415;-77
2021/11/22 15:35:54;;;;;;;3.35;0.60;;;5.80;99.90;;;;;;5047002;28;20041;-77
2021/11/22 15:38:21;;;;;;;3.47;0.50;;;5.70;99.90;;;;;;5085068;28;20395;-76
2021/11/22 15:40:48;;;;;;;11.88;8.57;;;5.60;99.90;;;;;;5033923;28;20033;-77
2021/11/22 15:43:20;;;;;;;5.72;3.00;;;5.50;99.90;;;;;;5050500;28;20033;-77
2021/11/22 15:45:50;;;;;;;17.98;9.55;;;5.40;99.90;;;;;;5032337;28;20070;-78
2021/11/22 15:48:18;;;;;;;12.35;6.40;;;5.40;99.90;;;;;;5067644;28;20474;-79
2021/11/22 15:50:48;;;;;;;8.52;3.95;;;5.30;99.90;;;;;;5049105;28;20067;-79
2021/11/22 15:53:17;;;;;;;4.80;2.33;;;5.30;99.90;;;;;;5031380;28;20056;-77
2021/11/22 15:55:52;;;;;;;3.17;1.30;;;5.20;99.90;;;;;;5029466;28;20033;-78
2021/11/22 15:58:22;;;;;;;2.05;0.82;;;5.20;99.90;;;;;;5048916;28;20509;-78
2021/11/22 16:00:48;;;;;;;3.42;1.25;;;5.10;99.90;;;;;;5050569;28;20037;-78
2021/11/22 16:03:17;;;;;;;4.80;2.10;;;5.10;99.90;;;;;;5051592;28;20480;-78
2021/11/22 16:05:44;;;;;;;8.63;3.63;;;5.00;99.90;;;;;;5062266;28;20051;-78
2021/11/22 16:08:10;;;;;;;7.40;3.83;;;5.00;99.90;;;;;;5052426;28;20069;-78
2021/11/22 16:10:37;;;;;;;7.82;3.95;;;4.90;99.90;;;;;;5049763;28;20063;-78
2021/11/22 16:13:03;;;;;;;5.88;2.90;;;4.90;99.90;;;;;;5018466;28;20040;-78
2021/11/22 16:15:30;;;;;;;3.42;1.50;;;4.90;99.90;;;;;;5031559;28;20049;-78
2021/11/22 16:17:57;;;;;;;2.97;1.10;;;4.80;99.90;;;;;;5032865;28;20443;-78
2021/11/22 16:20:55;;;;;;;3.10;0.82;;;4.80;99.90;;;;;;5029041;28;20044;-77
2021/11/22 16:23:22;;;;;;;2.65;0.73;;;4.80;99.90;;;;;;5062636;28;20043;-78
2021/11/22 16:25:51;;;;;;;1.90;0.60;;;4.80;99.90;;;;;;5048669;28;20078;-78
2021/11/22 16:28:19;;;;;;;5.05;0.55;;;4.70;99.90;;;;;;5028603;28;20156;-77
2021/11/22 16:30:48;;;;;;;2.35;0.40;;;4.70;99.90;;;;;;5064305;28;20032;-77
2021/11/22 16:33:15;;;;;;;2.15;0.50;;;4.60;99.90;;;;;;5026031;28;20049;-77
2021/11/22 16:35:42;;;;;;;3.25;0.50;;;4.60;99.90;;;;;;5034487;28;20047;-78
2021/11/22 16:38:11;;;;;;;1.33;0.40;;;4.60;99.90;;;;;;5068346;28;20647;-78
2021/11/22 16:40:37;;;;;;;2.20;0.50;;;4.50;99.90;;;;;;5056726;28;20192;-79
2021/11/22 16:43:03;;;;;;;1.75;0.30;;;4.50;99.90;;;;;;5049343;28;20049;-77
2021/11/22 16:45:30;;;;;;;1.27;0.30;;;4.50;99.90;;;;;;5063183;28;20040;-77
2021/11/22 16:47:56;;;;;;;1.88;0.82;;;4.40;99.90;;;;;;5063668;28;20032;-78
2021/11/22 16:50:23;;;;;;;6.40;2.28;;;4.40;99.90;;;;;;5050071;28;20480;-78
2021/11/22 16:52:50;;;;;;;11.65;4.25;;;4.40;99.90;;;;;;5031214;28;20033;-78
2021/11/22 16:55:17;;;;;;;7.32;3.20;;;4.30;99.90;;;;;;5063311;28;20491;-78
2021/11/22 16:57:44;;;;;;;11.27;5.88;;;4.30;99.90;;;;;;5048008;28;20028;-76
2021/11/22 17:00:13;;;;;;;12.88;5.82;;;4.30;99.90;;;;;;5065117;28;20032;-77
2021/11/22 17:02:40;;;;;;;11.40;6.03;;;4.20;99.90;;;;;;5069975;28;20572;-78
2021/11/22 17:05:07;;;;;;;8.13;3.85;;;4.20;99.90;;;;;;5067419;28;20036;-78
2021/11/22 17:07:34;;;;;;;10.20;5.53;;;4.20;99.90;;;;;;5069130;28;20051;-79
2021/11/22 17:10:00;;;;;;;9.35;3.25;;;4.20;99.90;;;;;;5052872;28;20045;-78
2021/11/22 17:12:28;;;;;;;5.55;2.58;;;4.10;99.90;;;;;;5047782;28;20033;-77
2021/11/22 17:14:55;;;;;;;3.80;1.58;;;4.10;99.90;;;;;;5045016;28;20032;-78
2021/11/22 17:17:21;;;;;;;4.05;1.05;;;4.10;99.90;;;;;;5063713;28;20040;-79
2021/11/22 17:19:48;;;;;;;3.05;0.73;;;4.10;99.90;;;;;;5067491;28;20039;-77
2021/11/22 17:22:31;;;;;;;1.60;0.60;;;4.10;99.90;;;;;;5029142;28;20448;-78
2021/11/22 17:24:58;;;;;;;1.25;0.63;;;4.10;99.90;;;;;;5066284;28;20033;-79
2021/11/22 17:27:25;;;;;;;2.60;0.82;;;4.00;99.90;;;;;;5047882;28;20040;-80
2021/11/22 17:29:51;;;;;;;3.45;0.82;;;4.00;99.90;;;;;;5049141;28;20028;-78
2021/11/22 17:32:19;;;;;;;2.85;0.80;;;4.00;99.90;;;;;;5049427;28;20511;-78
2021/11/22 17:34:48;;;;;;;2.35;0.70;;;4.10;99.90;;;;;;5053196;28;20041;-77
2021/11/22 17:37:14;;;;;;;1.33;0.50;;;4.10;99.90;;;;;;5063844;28;20602;-76
2021/11/22 17:39:41;;;;;;;2.70;0.68;;;4.10;99.90;;;;;;5068890;28;20033;-76
2021/11/22 17:42:08;;;;;;;3.25;0.80;;;4.00;99.90;;;;;;5082898;28;20040;-76
2021/11/22 17:44:38;;;;;;;3.10;1.50;;;4.00;99.90;;;;;;5082284;28;20052;-76
2021/11/22 17:47:04;;;;;;;4.28;2.67;;;4.00;99.90;;;;;;5065407;28;20047;-76
2021/11/22 17:49:31;;;;;;;4.22;1.30;;;4.00;99.90;;;;;;5034300;28;20047;-77
2021/11/22 17:51:58;;;;;;;3.05;1.42;;;4.00;99.90;;;;;;5047870;28;20048;-76
2021/11/22 17:54:24;;;;;;;2.15;1.40;;;4.00;99.90;;;;;;5065804;28;20037;-77
2021/11/22 17:56:51;;;;;;;5.00;1.52;;;4.00;99.90;;;;;;5062892;28;20036;-77
2021/11/22 17:59:19;;;;;;;3.38;1.38;;;4.00;99.90;;;;;;5025267;28;282172;-78
2021/11/22 18:01:48;;;;;;;4.95;1.65;;;4.00;99.90;;;;;;5042500;28;20034;-77
2021/11/22 18:04:15;;;;;;;4.28;1.60;;;4.00;99.90;;;;;;5029580;28;20025;-79
2021/11/22 18:06:41;;;;;;;4.00;1.13;;;4.00;99.90;;;;;;5012079;28;20372;-77
2021/11/22 18:09:08;;;;;;;5.00;2.72;;;4.00;99.90;;;;;;5022699;28;20380;-77
2021/11/22 18:11:35;;;;;;;27.55;14.30;;;3.90;99.90;;;;;;5029114;28;20032;-77
2021/11/22 18:14:03;;;;;;;12.02;6.25;;;3.90;99.90;;;;;;5014237;28;20032;-77
2021/11/22 18:16:29;;;;;;;9.40;4.22;;;3.90;99.90;;;;;;5012048;28;20471;-77
2021/11/22 18:18:56;;;;;;;7.90;3.70;;;3.80;99.90;;;;;;5013071;28;20029;-77
2021/11/22 18:21:22;;;;;;;4.13;2.33;;;3.80;99.90;;;;;;5044436;28;20742;-75
2021/11/22 18:23:48;;;;;;;4.85;2.75;;;3.80;99.90;;;;;;5046857;28;20411;-76
2021/11/22 18:26:15;;;;;;;5.30;2.40;;;3.70;99.90;;;;;;5012154;28;20044;-79
2021/11/22 18:28:41;;;;;;;4.20;2.13;;;3.70;99.90;;;;;;5012007;28;20044;-75
2021/11/22 18:31:08;;;;;;;4.65;1.48;;;3.70;99.90;;;;;;5045288;28;20476;-76
2021/11/22 18:33:34;;;;;;;3.03;1.40;;;3.70;99.90;;;;;;5045851;28;20045;-76
2021/11/22 18:36:01;;;;;;;6.07;1.40;;;3.70;99.90;;;;;;5044132;28;20049;-76
2021/11/22 18:38:28;;;;;;;2.22;1.20;;;3.70;99.90;;;;;;5045899;28;20029;-77
2021/11/22 18:40:54;;;;;;;2.00;0.90;;;3.70;99.90;;;;;;5059960;28;20040;-80
2021/11/22 18:43:21;;;;;;;3.10;1.52;;;3.70;99.90;;;;;;5025973;28;20496;-76
2021/11/22 18:45:48;;;;;;;8.35;3.65;;;3.70;99.90;;;;;;5040834;28;20064;-76
2021/11/22 18:48:15;;;;;;;7.15;3.67;;;3.70;99.90;;;;;;5045774;28;20049;-76
2021/11/22 18:50:43;;;;;;;16.08;7.53;;;3.70;99.90;;;;;;5012664;28;20055;-76
2021/11/22 18:53:10;;;;;;;9.60;3.58;;;3.70;99.90;;;;;;5013253;28;20033;-76
2021/11/22 18:55:39;;;;;;;8.40;3.65;;;3.70;99.90;;;;;;5008005;28;20033;-77
2021/11/22 18:58:08;;;;;;;6.25;2.70;;;3.60;99.90;;;;;;5014035;28;20040;-79
2021/11/22 19:00:36;;;;;;;8.05;2.63;;;3.70;99.90;;;;;;5027331;28;20041;-79
2021/11/22 19:03:04;;;;;;;7.97;4.05;;;3.70;99.90;;;;;;5040695;28;20037;-76
2021/11/22 19:05:31;;;;;;;6.18;2.80;;;3.70;99.90;;;;;;5028338;28;20034;-75
2021/11/22 19:07:58;;;;;;;7.68;3.33;;;3.60;99.90;;;;;;5024434;28;20564;-76
2021/11/22 19:10:25;;;;;;;4.53;2.78;;;3.70;99.90;;;;;;5013708;28;20037;-75
2021/11/22 19:12:52;;;;;;;3.63;1.42;;;3.70;99.90;;;;;;5028629;28;20056;-76
2021/11/22 19:15:21;;;;;;;3.92;2.20;;;3.80;99.90;;;;;;5045255;28;20040;-75
2021/11/22 22:52:43;;;;;;;9.87;3.87;;;2.90;99.90;;;;;;5088877;27;20155;-79
2021/11/22 22:55:10;;;;;;;12.20;4.47;;;2.90;99.90;;;;;;5071538;28;20021;-77
2021/11/22 22:57:36;;;;;;;11.47;4.53;;;3.00;99.90;;;;;;5065873;28;20028;-81
2021/11/22 23:00:38;;;;;;;8.67;4.27;;;3.10;99.90;;;;;;5054264;28;20033;-82
2021/11/22 23:03:07;;;;;;;6.67;3.83;;;3.20;99.90;;;;;;5061249;28;20040;-83
2021/11/22 23:05:35;;;;;;;9.60;4.40;;;3.30;99.90;;;;;;5035361;28;20036;-78
2021/11/22 23:08:01;;;;;;;7.87;3.80;;;3.30;99.90;;;;;;5051302;28;20036;-77
2021/11/22 23:10:28;;;;;;;7.85;3.95;;;3.40;99.90;;;;;;5069878;28;20052;-78
2021/11/22 23:12:57;;;;;;;7.13;3.83;;;3.50;99.90;;;;;;5034711;28;20029;-78
2021/11/22 23:15:24;;;;;;;6.00;3.05;;;3.60;99.90;;;;;;5021287;28;20376;-79
2021/11/22 23:17:50;;;;;;;8.65;4.32;;;3.70;99.90;;;;;;5018044;28;20496;-81
2021/11/22 23:20:17;;;;;;;7.50;3.30;;;3.70;99.90;;;;;;5007934;28;20032;-81
2021/11/22 23:22:44;;;;;;;6.03;3.45;;;3.80;99.90;;;;;;5005549;28;20484;-77
2021/11/22 23:25:10;;;;;;;6.10;2.90;;;3.80;99.90;;;;;;5047646;28;20036;-77
2021/11/22 23:27:36;;;;;;;32.38;13.52;;;3.90;99.90;;;;;;5033444;28;20044;-76
2021/11/22 23:30:03;;;;;;;16.88;7.72;;;3.90;99.90;;;;;;5039486;28;20032;-79
2021/11/22 23:32:30;;;;;;;13.00;6.40;;;3.90;99.90;;;;;;5052593;28;20052;-81
2021/11/22 23:34:58;;;;;;;10.15;5.13;;;3.90;99.90;;;;;;5051335;28;20384;-81
2021/11/22 23:37:27;;;;;;;9.82;4.40;;;3.90;99.90;;;;;;5053700;28;20028;-81
2021/11/22 23:39:54;;;;;;;8.90;3.55;;;3.90;99.90;;;;;;5052142;28;20033;-81
2021/11/22 23:42:21;;;;;;;9.73;4.68;;;3.90;99.90;;;;;;5037875;28;20039;-81
2021/11/22 23:44:50;;;;;;;10.32;4.43;;;3.90;99.90;;;;;;5034887;28;20045;-81
2021/11/22 23:47:16;;;;;;;8.63;3.95;;;3.90;99.90;;;;;;5051438;28;20048;-80
2021/11/22 23:49:43;;;;;;;9.52;3.85;;;3.90;99.90;;;;;;5068024;28;20040;-81
2021/11/22 23:52:10;;;;;;;8.75;4.15;;;3.80;99.90;;;;;;5050372;28;20045;-81
2021/11/22 23:54:37;;;;;;;9.15;4.00;;;3.80;99.90;;;;;;5050088;28;20037;-81
2021/11/22 23:57:03;;;;;;;10.43;3.60;;;3.80;99.90;;;;;;5050421;28;20032;-81
2021/11/22 23:59:30;;;;;;;10.23;4.03;;;3.80;99.90;;;;;;5049184;28;20036;-81
